TimeBST,TemperatureF,Dew PointF,Humidity,Sea Level PressureIn,VisibilityMPH,Wind Direction,Wind SpeedMPH,Gust SpeedMPH,PrecipitationIn,Events,Conditions,WindDirDegrees,DateUTC
12:58 AM,37.2,37.2,100,29.61,6.2,West,5.8,-,N/A,,Clear,270,2012-10-14 23:58:00
1:58 AM,36.0,36.0,100,29.62,6.2,SW,5.8,-,N/A,,Clear,230,2012-10-15 00:58:00
2:58 AM,35.2,35.2,100,29.62,6.2,WSW,4.6,-,N/A,,Clear,250,2012-10-15 01:58:00
3:58 AM,36.1,36.1,100,29.63,6.2,SW,6.9,-,N/A,,Clear,220,2012-10-15 02:58:00
4:58 AM,34.9,34.9,100,29.62,5.6,SSW,3.5,-,N/A,,Partly Cloudy,210,2012-10-15 03:58:00
5:08 AM,35.6,35.6,100,29.61,3.7,SSW,2.3,-,N/A,,Mostly Cloudy,210,2012-10-15 04:08:00
5:10 AM,35.6,35.6,100,29.61,2.5,SSW,3.5,-,N/A,,Mostly Cloudy,210,2012-10-15 04:10:00
5:12 AM,35.6,35.6,100,29.61,-9999.0,SSW,3.5,-,N/A,,Mostly Cloudy,210,2012-10-15 04:12:00
5:18 AM,35.6,35.6,100,29.61,2.5,SSW,4.6,-,N/A,,Mostly Cloudy,200,2012-10-15 04:18:00
5:19 AM,35.6,35.6,100,29.61,3.1,SSW,4.6,-,N/A,,Overcast,200,2012-10-15 04:19:00
5:21 AM,35.6,35.6,100,29.61,5.0,SSW,4.6,-,N/A,,Overcast,200,2012-10-15 04:21:00
5:58 AM,36.0,36.0,100,29.61,6.2,South,4.6,-,N/A,,Overcast,180,2012-10-15 04:58:00
6:58 AM,39.2,39.2,100,29.61,6.2,SW,4.6,-,N/A,,Overcast,220,2012-10-15 05:58:00
7:58 AM,41.2,41.2,100,29.61,6.2,SSW,4.6,-,N/A,,Overcast,200,2012-10-15 06:58:00
8:58 AM,43.0,43.0,100,29.60,6.2,SSE,4.6,-,N/A,,Overcast,160,2012-10-15 07:58:00
9:58 AM,45.9,45.9,100,29.60,6.2,SSW,6.9,-,N/A,,Overcast,210,2012-10-15 08:58:00
10:36 AM,46.4,46.4,100,29.58,6.2,South,8.1,-,N/A,Rain,Light Rain,190,2012-10-15 09:36:00
10:52 AM,48.2,46.4,93,29.58,6.2,South,8.1,-,N/A,,Overcast,180,2012-10-15 09:52:00
10:54 AM,48.2,46.4,93,29.58,6.2,SSW,11.5,-,N/A,,Overcast,200,2012-10-15 09:54:00
10:58 AM,47.5,45.5,93,29.59,6.2,South,9.2,-,0.00,,Overcast,190,2012-10-15 09:58:00
11:24 AM,48.2,46.4,93,29.57,6.2,SSW,10.4,-,N/A,Rain,Light Rain,200,2012-10-15 10:24:00
11:29 AM,48.2,46.4,93,29.57,6.2,SSW,10.4,-,N/A,Rain,Light Rain,200,2012-10-15 10:29:00
11:31 AM,48.2,46.4,93,29.57,6.2,South,8.1,-,N/A,Rain,Light Rain,190,2012-10-15 10:31:00
11:33 AM,48.2,46.4,93,29.57,6.2,SSW,9.2,-,N/A,,Overcast,210,2012-10-15 10:33:00
11:37 AM,48.2,46.4,93,29.57,6.2,SSW,9.2,-,N/A,Rain,Light Rain,200,2012-10-15 10:37:00
11:38 AM,48.2,46.4,93,29.57,6.2,SSW,9.2,-,N/A,Rain,Light Rain,210,2012-10-15 10:38:00
11:51 AM,48.2,48.2,100,29.57,6.2,SSW,10.4,-,N/A,,Overcast,210,2012-10-15 10:51:00
11:58 AM,48.2,47.8,99,29.57,6.2,SW,10.4,-,0.00,,Overcast,220,2012-10-15 10:58:00
12:58 PM,50.9,49.1,94,29.56,6.2,SW,12.7,-,N/A,,Overcast,220,2012-10-15 11:58:00
1:17 PM,51.8,50.0,94,29.54,6.2,SSW,10.4,-,N/A,,Mostly Cloudy,210,2012-10-15 12:17:00
1:31 PM,53.6,50.0,88,29.54,6.2,SW,13.8,-,N/A,,Mostly Cloudy,230,2012-10-15 12:31:00
1:37 PM,53.6,50.0,88,29.54,6.2,SW,11.5,-,N/A,,Mostly Cloudy,220,2012-10-15 12:37:00
1:41 PM,53.6,50.0,88,29.54,6.2,SW,10.4,-,N/A,,Mostly Cloudy,230,2012-10-15 12:41:00
1:47 PM,51.8,50.0,94,29.54,6.2,SW,11.5,-,N/A,,Mostly Cloudy,230,2012-10-15 12:47:00
1:58 PM,52.2,49.3,90,29.55,6.2,SW,15.0,-,N/A,,Mostly Cloudy,230,2012-10-15 12:58:00
1:59 PM,51.8,50.0,94,29.54,6.2,SW,16.1,-,N/A,,Overcast,230,2012-10-15 12:59:00
2:05 PM,51.8,48.2,88,29.54,6.2,WSW,15.0,-,N/A,,Overcast,240,2012-10-15 13:05:00
2:09 PM,51.8,48.2,88,29.54,6.2,SW,16.1,-,N/A,,Overcast,230,2012-10-15 13:09:00
2:11 PM,51.8,48.2,88,29.54,6.2,SW,16.1,-,N/A,,Overcast,230,2012-10-15 13:11:00
2:12 PM,51.8,48.2,88,29.54,6.2,SW,17.3,-,N/A,,Mostly Cloudy,230,2012-10-15 13:12:00
2:15 PM,53.6,48.2,82,29.54,6.2,WSW,15.0,-,N/A,,Mostly Cloudy,240,2012-10-15 13:15:00
2:58 PM,52.7,48.7,86,29.55,6.2,WSW,9.2,-,N/A,,Scattered Clouds,240,2012-10-15 13:58:00
3:16 PM,53.6,50.0,88,29.54,6.2,SW,11.5,-,N/A,,Mostly Cloudy,230,2012-10-15 14:16:00
3:36 PM,53.6,50.0,88,29.54,6.2,SW,11.5,-,N/A,,Mostly Cloudy,230,2012-10-15 14:36:00
3:46 PM,53.6,48.2,82,29.54,6.2,WSW,11.5,-,N/A,,Overcast,240,2012-10-15 14:46:00
3:47 PM,53.6,48.2,82,29.54,6.2,WSW,11.5,-,N/A,Rain,Light Rain,240,2012-10-15 14:47:00
3:58 PM,53.1,48.9,86,29.56,6.2,West,15.0,23.0,0.00,Rain,Light Rain,260,2012-10-15 14:58:00
4:03 PM,51.8,48.2,88,29.56,-9999.0,West,15.0,23.0,N/A,Rain,Light Rain,270,2012-10-15 15:03:00
4:04 PM,51.8,48.2,88,29.55,1.7,West,12.7,23.0,N/A,Rain,Heavy Rain,260,2012-10-15 15:04:00
4:05 PM,51.8,48.2,88,29.55,1.5,WSW,11.5,23.0,N/A,Rain,Heavy Rain,250,2012-10-15 15:05:00
4:06 PM,50.0,48.2,94,29.55,1.5,WSW,10.4,23.0,N/A,Rain,Heavy Rain,250,2012-10-15 15:06:00
4:10 PM,50.0,48.2,94,29.54,1.5,SW,8.1,-,N/A,Rain,Light Rain,230,2012-10-15 15:10:00
4:12 PM,48.2,48.2,100,29.54,1.7,SW,9.2,-,N/A,Rain,Light Rain,220,2012-10-15 15:12:00
4:13 PM,48.2,48.2,100,29.55,2.5,SW,8.1,-,N/A,Rain,Light Rain,230,2012-10-15 15:13:00
4:14 PM,48.2,48.2,100,29.55,3.7,SW,8.1,-,N/A,Rain,Light Rain,230,2012-10-15 15:14:00
4:34 PM,48.2,48.2,100,29.54,6.2,SW,12.7,-,N/A,Rain,Light Rain,230,2012-10-15 15:34:00
4:50 PM,48.2,48.2,100,29.55,6.2,SW,9.2,-,N/A,Rain,Light Rain,220,2012-10-15 15:50:00
4:51 PM,48.2,48.2,100,29.55,6.2,SW,9.2,-,N/A,,Mostly Cloudy,230,2012-10-15 15:51:00
4:53 PM,48.2,48.2,100,29.55,6.2,WSW,10.4,-,N/A,Rain,Light Rain,240,2012-10-15 15:53:00
4:56 PM,48.2,48.2,100,29.55,6.2,WSW,10.4,-,N/A,Rain,Light Rain,250,2012-10-15 15:56:00
4:58 PM,48.2,48.2,100,29.56,6.2,WSW,11.5,-,0.08,Rain,Light Rain,250,2012-10-15 15:58:00
5:03 PM,50.0,46.4,87,29.55,6.2,West,12.7,-,N/A,,Mostly Cloudy,260,2012-10-15 16:03:00
5:04 PM,50.0,48.2,94,29.55,6.2,West,12.7,-,N/A,,Mostly Cloudy,260,2012-10-15 16:04:00
5:06 PM,50.0,48.2,94,29.55,6.2,West,10.4,-,N/A,Rain,Light Rain,260,2012-10-15 16:06:00
5:12 PM,50.0,48.2,94,29.55,6.2,West,11.5,-,N/A,Rain,Light Rain,260,2012-10-15 16:12:00
5:15 PM,50.0,48.2,94,29.55,6.2,WSW,10.4,-,N/A,Rain,Light Rain,250,2012-10-15 16:15:00
5:28 PM,48.2,48.2,100,29.55,6.2,SW,8.1,-,N/A,,Overcast,220,2012-10-15 16:28:00
5:31 PM,48.2,48.2,100,29.55,6.2,SW,8.1,-,N/A,Rain,Light Rain,220,2012-10-15 16:31:00
5:36 PM,48.2,48.2,100,29.55,6.2,SSW,6.9,-,N/A,Rain,Light Rain,210,2012-10-15 16:36:00
5:39 PM,48.2,48.2,100,29.55,6.2,SSW,9.2,-,N/A,Rain,Light Rain,210,2012-10-15 16:39:00
5:56 PM,48.2,48.2,100,29.54,6.2,SSW,5.8,-,N/A,,Overcast,200,2012-10-15 16:56:00
5:58 PM,48.2,48.2,100,29.56,6.2,SSW,5.8,-,0.01,,Overcast,200,2012-10-15 16:58:00
5:59 PM,48.2,48.2,100,29.55,6.2,South,5.8,-,N/A,,Overcast,190,2012-10-15 16:59:00
6:00 PM,48.2,48.2,100,29.55,6.2,SSW,5.8,-,N/A,,Overcast,200,2012-10-15 17:00:00
6:02 PM,48.2,48.2,100,29.55,6.2,South,5.8,-,N/A,,Overcast,190,2012-10-15 17:02:00
6:36 PM,48.2,48.2,100,29.55,6.2,South,5.8,-,N/A,,Overcast,180,2012-10-15 17:36:00
6:37 PM,48.2,48.2,100,29.55,6.2,South,5.8,-,N/A,,Overcast,180,2012-10-15 17:37:00
6:39 PM,48.2,48.2,100,29.55,6.2,South,5.8,-,N/A,,Overcast,180,2012-10-15 17:39:00
6:56 PM,48.2,48.2,100,29.55,6.2,South,6.9,-,N/A,,Overcast,180,2012-10-15 17:56:00
6:58 PM,48.4,48.4,100,29.56,6.2,South,6.9,-,0.00,,Overcast,180,2012-10-15 17:58:00
6:59 PM,48.2,48.2,100,29.55,6.2,South,6.9,-,N/A,,Overcast,180,2012-10-15 17:59:00
7:11 PM,48.2,48.2,100,29.55,6.2,South,5.8,-,N/A,,Overcast,180,2012-10-15 18:11:00
7:15 PM,48.2,48.2,100,29.55,6.2,South,6.9,-,N/A,,Overcast,180,2012-10-15 18:15:00
7:17 PM,48.2,48.2,100,29.55,6.2,South,5.8,-,N/A,,Overcast,180,2012-10-15 18:17:00
7:18 PM,48.2,48.2,100,29.55,6.2,South,5.8,-,N/A,,Overcast,180,2012-10-15 18:18:00
7:20 PM,48.2,48.2,100,29.55,6.2,South,6.9,-,N/A,,Overcast,190,2012-10-15 18:20:00
7:22 PM,48.2,48.2,100,29.55,6.2,South,6.9,-,N/A,,Overcast,190,2012-10-15 18:22:00
7:39 PM,48.2,48.2,100,29.55,6.2,South,8.1,-,N/A,,Overcast,190,2012-10-15 18:39:00
7:40 PM,48.2,48.2,100,29.55,6.2,South,8.1,-,N/A,,Overcast,190,2012-10-15 18:40:00
7:44 PM,50.0,48.2,94,29.55,6.2,South,10.4,-,N/A,Rain,Light Rain,190,2012-10-15 18:44:00
7:45 PM,50.0,48.2,94,29.55,6.2,South,10.4,-,N/A,Rain,Light Rain,190,2012-10-15 18:45:00
7:47 PM,50.0,48.2,94,29.55,6.2,South,11.5,-,N/A,Rain,Light Rain,190,2012-10-15 18:47:00
7:54 PM,50.0,48.2,94,29.55,6.2,SSW,11.5,-,N/A,,Overcast,200,2012-10-15 18:54:00
7:58 PM,49.5,48.7,97,29.56,6.2,SSW,12.7,-,0.01,,Overcast,200,2012-10-15 18:58:00
8:00 PM,50.0,48.2,94,29.55,6.2,SSW,12.7,-,N/A,,Overcast,200,2012-10-15 19:00:00
8:01 PM,50.0,48.2,94,29.55,6.2,SSW,12.7,-,N/A,,Overcast,200,2012-10-15 19:01:00
8:18 PM,50.0,50.0,100,29.55,6.2,SSW,10.4,-,N/A,,Overcast,200,2012-10-15 19:18:00
8:19 PM,50.0,50.0,100,29.55,6.2,SSW,10.4,-,N/A,Rain,Light Rain,200,2012-10-15 19:19:00
8:29 PM,50.0,50.0,100,29.55,6.2,South,6.9,-,N/A,Rain,Light Rain,190,2012-10-15 19:29:00
8:37 PM,50.0,50.0,100,29.55,6.2,South,4.6,-,N/A,Rain,Light Rain,180,2012-10-15 19:37:00
8:43 PM,50.0,50.0,100,29.55,6.2,South,3.5,-,N/A,,Overcast,180,2012-10-15 19:43:00
8:45 PM,50.0,50.0,100,29.55,6.2,South,3.5,-,N/A,,Mostly Cloudy,180,2012-10-15 19:45:00
8:47 PM,50.0,50.0,100,29.55,6.2,South,2.3,-,N/A,,Overcast,180,2012-10-15 19:47:00
8:49 PM,50.0,50.0,100,29.55,6.2,South,3.5,-,N/A,,Mostly Cloudy,180,2012-10-15 19:49:00
8:53 PM,48.2,48.2,100,29.54,6.2,South,4.6,-,N/A,,Mostly Cloudy,180,2012-10-15 19:53:00
8:54 PM,48.2,48.2,100,29.54,6.2,South,4.6,-,N/A,,Mostly Cloudy,180,2012-10-15 19:54:00
8:58 PM,49.1,49.1,100,29.55,6.2,South,4.6,-,0.00,,Mostly Cloudy,170,2012-10-15 19:58:00
9:58 PM,49.5,49.5,100,29.54,6.2,South,9.2,-,N/A,,Overcast,180,2012-10-15 20:58:00
10:54 PM,50.0,50.0,100,29.51,6.2,South,8.1,-,N/A,,Overcast,170,2012-10-15 21:54:00
10:58 PM,49.6,49.6,100,29.52,6.2,South,9.2,-,N/A,,Overcast,170,2012-10-15 21:58:00
11:08 PM,50.0,50.0,100,29.50,6.2,South,10.4,-,N/A,,Overcast,170,2012-10-15 22:08:00
11:15 PM,50.0,50.0,100,29.50,6.2,South,10.4,-,N/A,,Overcast,170,2012-10-15 22:15:00
11:17 PM,50.0,50.0,100,29.50,6.2,South,10.4,-,N/A,,Overcast,170,2012-10-15 22:17:00
11:28 PM,50.0,50.0,100,29.50,6.2,South,9.2,-,N/A,,Overcast,180,2012-10-15 22:28:00
11:38 PM,50.0,50.0,100,29.49,6.2,South,10.4,-,N/A,,Mostly Cloudy,180,2012-10-15 22:38:00
11:47 PM,50.0,50.0,100,29.49,6.2,South,10.4,-,N/A,,Mostly Cloudy,170,2012-10-15 22:47:00
11:58 PM,50.7,50.7,100,29.50,6.2,South,10.4,-,N/A,,Mostly Cloudy,170,2012-10-15 22:58:00